Aviation Digital Data Service (ADDS)

Output produced by METARs form (1518 UTC 20 March 2019)
found at http://www.aviationweather.gov/metar/data/
 
METAR text: VOTV 201500Z 31003KT 4000 HZ FEW015 31/25 Q1011 NOSIG
Conditions at: VOTV (THIRUVANANTHAPUR, IN) observed 1500 UTC 20 March 2019
Temperature: 31.0°C (88°F)
Dewpoint: 25.0°C (77°F) [RH = 71%]
Pressure (altimeter): 29.85 inches Hg (1011.0 mb)
Winds: from the NW (310 degrees) at 3 MPH (3 knots; 1.5 m/s)
Visibility: 2.49 miles (4.01 km)
Ceiling: at least 12,000 feet AGL
Clouds: few clouds at 1500 feet AGL
Weather: HZ  (haze)

METAR text: VOTV 201430Z 27003KT 4000 HZ FEW015 31/25 Q1010 NOSIG
Conditions at: VOTV (THIRUVANANTHAPUR, IN) observed 1430 UTC 20 March 2019
Temperature: 31.0°C (88°F)
Dewpoint: 25.0°C (77°F) [RH = 71%]
Pressure (altimeter): 29.82 inches Hg (1010.0 mb)
Winds: from the W (270 degrees) at 3 MPH (3 knots; 1.5 m/s)
Visibility: 2.49 miles (4.01 km)
Ceiling: at least 12,000 feet AGL
Clouds: few clouds at 1500 feet AGL
Weather: HZ  (haze)

METAR text: VOTV 201400Z 32003KT 4000 HZ FEW015 31/24 Q1009 NOSIG
Conditions at: VOTV (THIRUVANANTHAPUR, IN) observed 1400 UTC 20 March 2019
Temperature: 31.0°C (88°F)
Dewpoint: 24.0°C (75°F) [RH = 66%]
Pressure (altimeter): 29.79 inches Hg (1009.0 mb)
Winds: from the NW (320 degrees) at 3 MPH (3 knots; 1.5 m/s)
Visibility: 2.49 miles (4.01 km)
Ceiling: at least 12,000 feet AGL
Clouds: few clouds at 1500 feet AGL
Weather: HZ  (haze)

METAR text: VOTV 201330Z 28004KT 4000 HZ FEW015 FEW025CB 31/24 Q1009 NOSIG
Conditions at: VOTV (THIRUVANANTHAPUR, IN) observed 1330 UTC 20 March 2019
Temperature: 31.0°C (88°F)
Dewpoint: 24.0°C (75°F) [RH = 66%]
Pressure (altimeter): 29.79 inches Hg (1009.0 mb)
Winds: from the W (280 degrees) at 5 MPH (4 knots; 2.1 m/s)
Visibility: 2.49 miles (4.01 km)
Ceiling: at least 12,000 feet AGL
Clouds: few clouds at 1500 feet AGL
few clouds at 2500 feet AGL
Weather: HZ  (haze)

METAR text: VOTV 201300Z 31004KT 6000 FEW015 FEW025CB 31/24 Q1008 TEMPO 4000 HZ
Conditions at: VOTV (THIRUVANANTHAPUR, IN) observed 1300 UTC 20 March 2019
Temperature: 31.0°C (88°F)
Dewpoint: 24.0°C (75°F) [RH = 66%]
Pressure (altimeter): 29.76 inches Hg (1008.0 mb)
Winds: from the NW (310 degrees) at 5 MPH (4 knots; 2.1 m/s)
Visibility: 4 miles ( 6 km)
Ceiling: at least 12,000 feet AGL
Clouds: few clouds at 1500 feet AGL
few clouds at 2500 feet AGL
Weather: no significant weather observed at this time

METAR text: VOTV 201230Z 29005KT 6000 FEW015 FEW025CB 31/24 Q1008 TEMPO 5000 HZ
Conditions at: VOTV (THIRUVANANTHAPUR, IN) observed 1230 UTC 20 March 2019
Temperature: 31.0°C (88°F)
Dewpoint: 24.0°C (75°F) [RH = 66%]
Pressure (altimeter): 29.76 inches Hg (1008.0 mb)
Winds: from the WNW (290 degrees) at 6 MPH (5 knots; 2.6 m/s)
Visibility: 4 miles ( 6 km)
Ceiling: at least 12,000 feet AGL
Clouds: few clouds at 1500 feet AGL
few clouds at 2500 feet AGL
Weather: no significant weather observed at this time

METAR text: VOTV 201200Z 32006KT 6000 FEW015 FEW025CB 32/25 Q1008 NOSIG
Conditions at: VOTV (THIRUVANANTHAPUR, IN) observed 1200 UTC 20 March 2019
Temperature: 32.0°C (90°F)
Dewpoint: 25.0°C (77°F) [RH = 67%]
Pressure (altimeter): 29.76 inches Hg (1008.0 mb)
Winds: from the NW (320 degrees) at 7 MPH (6 knots; 3.1 m/s)
Visibility: 4 miles ( 6 km)
Ceiling: at least 12,000 feet AGL
Clouds: few clouds at 1500 feet AGL
few clouds at 2500 feet AGL
Weather: no significant weather observed at this time

METAR text: VOTV 201130Z 33005KT 6000 FEW015 FEW025TCU 32/25 Q1008 NOSIG
Conditions at: VOTV (THIRUVANANTHAPUR, IN) observed 1130 UTC 20 March 2019
Temperature: 32.0°C (90°F)
Dewpoint: 25.0°C (77°F) [RH = 67%]
Pressure (altimeter): 29.76 inches Hg (1008.0 mb)
Winds: from the NNW (330 degrees) at 6 MPH (5 knots; 2.6 m/s)
Visibility: 4 miles ( 6 km)
Ceiling: at least 12,000 feet AGL
Clouds: few clouds at 1500 feet AGL
few clouds at 2500 feet AGL
Weather: no significant weather observed at this time

METAR text: VOTV 201100Z 30006KT 6000 FEW015 FEW025TCU 33/25 Q1008 NOSIG
Conditions at: VOTV (THIRUVANANTHAPUR, IN) observed 1100 UTC 20 March 2019
Temperature: 33.0°C (91°F)
Dewpoint: 25.0°C (77°F) [RH = 63%]
Pressure (altimeter): 29.76 inches Hg (1008.0 mb)
Winds: from the WNW (300 degrees) at 7 MPH (6 knots; 3.1 m/s)
Visibility: 4 miles ( 6 km)
Ceiling: at least 12,000 feet AGL
Clouds: few clouds at 1500 feet AGL
few clouds at 2500 feet AGL
Weather: no significant weather observed at this time

METAR text: VOTV 201030Z 32006KT 6000 FEW015 FEW025TCU 33/25 Q1008 NOSIG
Conditions at: VOTV (THIRUVANANTHAPUR, IN) observed 1030 UTC 20 March 2019
Temperature: 33.0°C (91°F)
Dewpoint: 25.0°C (77°F) [RH = 63%]
Pressure (altimeter): 29.76 inches Hg (1008.0 mb)
Winds: from the NW (320 degrees) at 7 MPH (6 knots; 3.1 m/s)
Visibility: 4 miles ( 6 km)
Ceiling: at least 12,000 feet AGL
Clouds: few clouds at 1500 feet AGL
few clouds at 2500 feet AGL
Weather: no significant weather observed at this time

METAR text: VOTV 201000Z 32007KT 6000 FEW015 FEW025TCU 33/25 Q1008 NOSIG
Conditions at: VOTV (THIRUVANANTHAPUR, IN) observed 1000 UTC 20 March 2019
Temperature: 33.0°C (91°F)
Dewpoint: 25.0°C (77°F) [RH = 63%]
Pressure (altimeter): 29.76 inches Hg (1008.0 mb)
Winds: from the NW (320 degrees) at 8 MPH (7 knots; 3.6 m/s)
Visibility: 4 miles ( 6 km)
Ceiling: at least 12,000 feet AGL
Clouds: few clouds at 1500 feet AGL
few clouds at 2500 feet AGL
Weather: no significant weather observed at this time

METAR text: VOTV 200930Z 32007KT 6000 FEW015 FEW025TCU 33/25 Q1008 NOSIG
Conditions at: VOTV (THIRUVANANTHAPUR, IN) observed 0930 UTC 20 March 2019
Temperature: 33.0°C (91°F)
Dewpoint: 25.0°C (77°F) [RH = 63%]
Pressure (altimeter): 29.76 inches Hg (1008.0 mb)
Winds: from the NW (320 degrees) at 8 MPH (7 knots; 3.6 m/s)
Visibility: 4 miles ( 6 km)
Ceiling: at least 12,000 feet AGL
Clouds: few clouds at 1500 feet AGL
few clouds at 2500 feet AGL
Weather: no significant weather observed at this time

METAR text: VOTV 200900Z 31007KT 6000 FEW015 FEW025TCU 33/25 Q1008 NOSIG
Conditions at: VOTV (THIRUVANANTHAPUR, IN) observed 0900 UTC 20 March 2019
Temperature: 33.0°C (91°F)
Dewpoint: 25.0°C (77°F) [RH = 63%]
Pressure (altimeter): 29.76 inches Hg (1008.0 mb)
Winds: from the NW (310 degrees) at 8 MPH (7 knots; 3.6 m/s)
Visibility: 4 miles ( 6 km)
Ceiling: at least 12,000 feet AGL
Clouds: few clouds at 1500 feet AGL
few clouds at 2500 feet AGL
Weather: no significant weather observed at this time

METAR text: VOTV 200830Z 32007KT 6000 FEW015 FEW025TCU 33/24 Q1009 NOSIG
Conditions at: VOTV (THIRUVANANTHAPUR, IN) observed 0830 UTC 20 March 2019
Temperature: 33.0°C (91°F)
Dewpoint: 24.0°C (75°F) [RH = 59%]
Pressure (altimeter): 29.79 inches Hg (1009.0 mb)
Winds: from the NW (320 degrees) at 8 MPH (7 knots; 3.6 m/s)
Visibility: 4 miles ( 6 km)
Ceiling: at least 12,000 feet AGL
Clouds: few clouds at 1500 feet AGL
few clouds at 2500 feet AGL
Weather: no significant weather observed at this time

METAR text: VOTV 200800Z 32007KT 6000 FEW015 FEW025TCU 33/24 Q1009 NOSIG
Conditions at: VOTV (THIRUVANANTHAPUR, IN) observed 0800 UTC 20 March 2019
Temperature: 33.0°C (91°F)
Dewpoint: 24.0°C (75°F) [RH = 59%]
Pressure (altimeter): 29.79 inches Hg (1009.0 mb)
Winds: from the NW (320 degrees) at 8 MPH (7 knots; 3.6 m/s)
Visibility: 4 miles ( 6 km)
Ceiling: at least 12,000 feet AGL
Clouds: few clouds at 1500 feet AGL
few clouds at 2500 feet AGL
Weather: no significant weather observed at this time

METAR text: VOTV 200730Z 32007KT 6000 SCT015 FEW025TCU 32/24 Q1010 NOSIG
Conditions at: VOTV (THIRUVANANTHAPUR, IN) observed 0730 UTC 20 March 2019
Temperature: 32.0°C (90°F)
Dewpoint: 24.0°C (75°F) [RH = 63%]
Pressure (altimeter): 29.82 inches Hg (1010.0 mb)
Winds: from the NW (320 degrees) at 8 MPH (7 knots; 3.6 m/s)
Visibility: 4 miles ( 6 km)
Ceiling: at least 12,000 feet AGL
Clouds: scattered clouds at 1500 feet AGL
few clouds at 2500 feet AGL
Weather: no significant weather observed at this time

METAR text: VOTV 200700Z 30007KT 6000 SCT015 FEW025TCU 32/24 Q1010 NOSIG
Conditions at: VOTV (THIRUVANANTHAPUR, IN) observed 0700 UTC 20 March 2019
Temperature: 32.0°C (90°F)
Dewpoint: 24.0°C (75°F) [RH = 63%]
Pressure (altimeter): 29.82 inches Hg (1010.0 mb)
Winds: from the WNW (300 degrees) at 8 MPH (7 knots; 3.6 m/s)
Visibility: 4 miles ( 6 km)
Ceiling: at least 12,000 feet AGL
Clouds: scattered clouds at 1500 feet AGL
few clouds at 2500 feet AGL
Weather: no significant weather observed at this time

METAR text: VOTV 200630Z 32007KT 6000 SCT015 FEW025TCU 33/24 Q1011 NOSIG
Conditions at: VOTV (THIRUVANANTHAPUR, IN) observed 0630 UTC 20 March 2019
Temperature: 33.0°C (91°F)
Dewpoint: 24.0°C (75°F) [RH = 59%]
Pressure (altimeter): 29.85 inches Hg (1011.0 mb)
Winds: from the NW (320 degrees) at 8 MPH (7 knots; 3.6 m/s)
Visibility: 4 miles ( 6 km)
Ceiling: at least 12,000 feet AGL
Clouds: scattered clouds at 1500 feet AGL
few clouds at 2500 feet AGL
Weather: no significant weather observed at this time

METAR text: VOTV 200600Z 30007KT 6000 SCT015 FEW025TCU 32/24 Q1011 NOSIG
Conditions at: VOTV (THIRUVANANTHAPUR, IN) observed 0600 UTC 20 March 2019
Temperature: 32.0°C (90°F)
Dewpoint: 24.0°C (75°F) [RH = 63%]
Pressure (altimeter): 29.85 inches Hg (1011.0 mb)
Winds: from the WNW (300 degrees) at 8 MPH (7 knots; 3.6 m/s)
Visibility: 4 miles ( 6 km)
Ceiling: at least 12,000 feet AGL
Clouds: scattered clouds at 1500 feet AGL
few clouds at 2500 feet AGL
Weather: no significant weather observed at this time

METAR text: VOTV 200530Z 33007KT 6000 SCT015 FEW025TCU 32/24 Q1012 NOSIG
Conditions at: VOTV (THIRUVANANTHAPUR, IN) observed 0530 UTC 20 March 2019
Temperature: 32.0°C (90°F)
Dewpoint: 24.0°C (75°F) [RH = 63%]
Pressure (altimeter): 29.88 inches Hg (1012.0 mb)
Winds: from the NNW (330 degrees) at 8 MPH (7 knots; 3.6 m/s)
Visibility: 4 miles ( 6 km)
Ceiling: at least 12,000 feet AGL
Clouds: scattered clouds at 1500 feet AGL
few clouds at 2500 feet AGL
Weather: no significant weather observed at this time

METAR text: VOTV 200500Z 34006KT 5000 HZ SCT015 FEW025TCU 32/24 Q1012 BECMG 6000
Conditions at: VOTV (THIRUVANANTHAPUR, IN) observed 0500 UTC 20 March 2019
Temperature: 32.0°C (90°F)
Dewpoint: 24.0°C (75°F) [RH = 63%]
Pressure (altimeter): 29.88 inches Hg (1012.0 mb)
Winds: from the NNW (340 degrees) at 7 MPH (6 knots; 3.1 m/s)
Visibility: 3 miles ( 5 km)
Ceiling: at least 12,000 feet AGL
Clouds: scattered clouds at 1500 feet AGL
few clouds at 2500 feet AGL
Weather: HZ  (haze)

METAR text: VOTV 200430Z 28005KT 5000 HZ SCT015 FEW025TCU 31/24 Q1012 NOSIG
Conditions at: VOTV (THIRUVANANTHAPUR, IN) observed 0430 UTC 20 March 2019
Temperature: 31.0°C (88°F)
Dewpoint: 24.0°C (75°F) [RH = 66%]
Pressure (altimeter): 29.88 inches Hg (1012.0 mb)
Winds: from the W (280 degrees) at 6 MPH (5 knots; 2.6 m/s)
Visibility: 3 miles ( 5 km)
Ceiling: at least 12,000 feet AGL
Clouds: scattered clouds at 1500 feet AGL
few clouds at 2500 feet AGL
Weather: HZ  (haze)

METAR text: VOTV 200400Z 32005KT 5000 HZ SCT015 FEW025TCU 31/24 Q1012 NOSIG
Conditions at: VOTV (THIRUVANANTHAPUR, IN) observed 0400 UTC 20 March 2019
Temperature: 31.0°C (88°F)
Dewpoint: 24.0°C (75°F) [RH = 66%]
Pressure (altimeter): 29.88 inches Hg (1012.0 mb)
Winds: from the NW (320 degrees) at 6 MPH (5 knots; 2.6 m/s)
Visibility: 3 miles ( 5 km)
Ceiling: at least 12,000 feet AGL
Clouds: scattered clouds at 1500 feet AGL
few clouds at 2500 feet AGL
Weather: HZ  (haze)

METAR text: VOTV 200330Z 03004KT 5000 HZ FEW015 31/24 Q1011 NOSIG
Conditions at: VOTV (THIRUVANANTHAPUR, IN) observed 0330 UTC 20 March 2019
Temperature: 31.0°C (88°F)
Dewpoint: 24.0°C (75°F) [RH = 66%]
Pressure (altimeter): 29.85 inches Hg (1011.0 mb)
Winds: from the NNE (30 degrees) at 5 MPH (4 knots; 2.1 m/s)
Visibility: 3 miles ( 5 km)
Ceiling: at least 12,000 feet AGL
Clouds: few clouds at 1500 feet AGL
Weather: HZ  (haze)

METAR text: VOTV 200300Z 17004KT 4000 HZ FEW015 30/24 Q1011 BECMG 5000 HZ
Conditions at: VOTV (THIRUVANANTHAPUR, IN) observed 0300 UTC 20 March 2019
Temperature: 30.0°C (86°F)
Dewpoint: 24.0°C (75°F) [RH = 70%]
Pressure (altimeter): 29.85 inches Hg (1011.0 mb)
Winds: from the S (170 degrees) at 5 MPH (4 knots; 2.1 m/s)
Visibility: 2.49 miles (4.01 km)
Ceiling: at least 12,000 feet AGL
Clouds: few clouds at 1500 feet AGL
Weather: HZ  (haze)

METAR text: VOTV 200230Z 12004KT 4000 HZ FEW015 29/24 Q1010 NOSIG
Conditions at: VOTV (THIRUVANANTHAPUR, IN) observed 0230 UTC 20 March 2019
Temperature: 29.0°C (84°F)
Dewpoint: 24.0°C (75°F) [RH = 74%]
Pressure (altimeter): 29.82 inches Hg (1010.0 mb)
Winds: from the ESE (120 degrees) at 5 MPH (4 knots; 2.1 m/s)
Visibility: 2.49 miles (4.01 km)
Ceiling: at least 12,000 feet AGL
Clouds: few clouds at 1500 feet AGL
Weather: HZ  (haze)

METAR text: VOTV 200200Z 14004KT 4000 HZ FEW015 29/24 Q1010 NOSIG
Conditions at: VOTV (THIRUVANANTHAPUR, IN) observed 0200 UTC 20 March 2019
Temperature: 29.0°C (84°F)
Dewpoint: 24.0°C (75°F) [RH = 74%]
Pressure (altimeter): 29.82 inches Hg (1010.0 mb)
Winds: from the SE (140 degrees) at 5 MPH (4 knots; 2.1 m/s)
Visibility: 2.49 miles (4.01 km)
Ceiling: at least 12,000 feet AGL
Clouds: few clouds at 1500 feet AGL
Weather: HZ  (haze)

METAR text: VOTV 200100Z 16005KT 3500 HZ FEW015 28/24 Q1009 NOSIG
Conditions at: VOTV (THIRUVANANTHAPUR, IN) observed 0100 UTC 20 March 2019
Temperature: 28.0°C (82°F)
Dewpoint: 24.0°C (75°F) [RH = 79%]
Pressure (altimeter): 29.79 inches Hg (1009.0 mb)
Winds: from the SSE (160 degrees) at 6 MPH (5 knots; 2.6 m/s)
Visibility: 2.17 miles (3.49 km)
Ceiling: at least 12,000 feet AGL
Clouds: few clouds at 1500 feet AGL
Weather: HZ  (haze)

METAR text: VOTV 200030Z VRB02KT 3500 HZ FEW015 28/24 Q1009 NOSIG
Conditions at: VOTV (THIRUVANANTHAPUR, IN) observed 0030 UTC 20 March 2019
Temperature: 28.0°C (82°F)
Dewpoint: 24.0°C (75°F) [RH = 79%]
Pressure (altimeter): 29.79 inches Hg (1009.0 mb)
Winds: variable direction winds at 2 MPH (2 knots; 1.0 m/s)
Visibility: 2.17 miles (3.49 km)
Ceiling: at least 12,000 feet AGL
Clouds: few clouds at 1500 feet AGL
Weather: HZ  (haze)

METAR text: VOTV 200000Z VRB02KT 4000 HZ FEW015 28/24 Q1008 NOSIG
Conditions at: VOTV (THIRUVANANTHAPUR, IN) observed 0000 UTC 20 March 2019
Temperature: 28.0°C (82°F)
Dewpoint: 24.0°C (75°F) [RH = 79%]
Pressure (altimeter): 29.76 inches Hg (1008.0 mb)
Winds: variable direction winds at 2 MPH (2 knots; 1.0 m/s)
Visibility: 2.49 miles (4.01 km)
Ceiling: at least 12,000 feet AGL
Clouds: few clouds at 1500 feet AGL
Weather: HZ  (haze)

METAR text: VOTV 192330Z 17004KT 4000 HZ FEW015 28/24 Q1008 NOSIG
Conditions at: VOTV (THIRUVANANTHAPUR, IN) observed 2330 UTC 19 March 2019
Temperature: 28.0°C (82°F)
Dewpoint: 24.0°C (75°F) [RH = 79%]
Pressure (altimeter): 29.76 inches Hg (1008.0 mb)
Winds: from the S (170 degrees) at 5 MPH (4 knots; 2.1 m/s)
Visibility: 2.49 miles (4.01 km)
Ceiling: at least 12,000 feet AGL
Clouds: few clouds at 1500 feet AGL
Weather: HZ  (haze)

METAR text: VOTV 192300Z VRB02KT 4000 HZ FEW015 28/24 Q1008 NOSIG
Conditions at: VOTV (THIRUVANANTHAPUR, IN) observed 2300 UTC 19 March 2019
Temperature: 28.0°C (82°F)
Dewpoint: 24.0°C (75°F) [RH = 79%]
Pressure (altimeter): 29.76 inches Hg (1008.0 mb)
Winds: variable direction winds at 2 MPH (2 knots; 1.0 m/s)
Visibility: 2.49 miles (4.01 km)
Ceiling: at least 12,000 feet AGL
Clouds: few clouds at 1500 feet AGL
Weather: HZ  (haze)

METAR text: VOTV 192230Z 14003KT 4000 HZ FEW015 29/24 Q1008 NOSIG
Conditions at: VOTV (THIRUVANANTHAPUR, IN) observed 2230 UTC 19 March 2019
Temperature: 29.0°C (84°F)
Dewpoint: 24.0°C (75°F) [RH = 74%]
Pressure (altimeter): 29.76 inches Hg (1008.0 mb)
Winds: from the SE (140 degrees) at 3 MPH (3 knots; 1.5 m/s)
Visibility: 2.49 miles (4.01 km)
Ceiling: at least 12,000 feet AGL
Clouds: few clouds at 1500 feet AGL
Weather: HZ  (haze)

METAR text: VOTV 192200Z 12003KT 4000 HZ FEW015 28/24 Q1008 NOSIG
Conditions at: VOTV (THIRUVANANTHAPUR, IN) observed 2200 UTC 19 March 2019
Temperature: 28.0°C (82°F)
Dewpoint: 24.0°C (75°F) [RH = 79%]
Pressure (altimeter): 29.76 inches Hg (1008.0 mb)
Winds: from the ESE (120 degrees) at 3 MPH (3 knots; 1.5 m/s)
Visibility: 2.49 miles (4.01 km)
Ceiling: at least 12,000 feet AGL
Clouds: few clouds at 1500 feet AGL
Weather: HZ  (haze)

METAR text: VOTV 192130Z 16005KT 4000 HZ FEW015 29/24 Q1008 NOSIG
Conditions at: VOTV (THIRUVANANTHAPUR, IN) observed 2130 UTC 19 March 2019
Temperature: 29.0°C (84°F)
Dewpoint: 24.0°C (75°F) [RH = 74%]
Pressure (altimeter): 29.76 inches Hg (1008.0 mb)
Winds: from the SSE (160 degrees) at 6 MPH (5 knots; 2.6 m/s)
Visibility: 2.49 miles (4.01 km)
Ceiling: at least 12,000 feet AGL
Clouds: few clouds at 1500 feet AGL
Weather: HZ  (haze)

METAR text: VOTV 192100Z 16004KT 4000 HZ FEW015 29/24 Q1008 NOSIG
Conditions at: VOTV (THIRUVANANTHAPUR, IN) observed 2100 UTC 19 March 2019
Temperature: 29.0°C (84°F)
Dewpoint: 24.0°C (75°F) [RH = 74%]
Pressure (altimeter): 29.76 inches Hg (1008.0 mb)
Winds: from the SSE (160 degrees) at 5 MPH (4 knots; 2.1 m/s)
Visibility: 2.49 miles (4.01 km)
Ceiling: at least 12,000 feet AGL
Clouds: few clouds at 1500 feet AGL
Weather: HZ  (haze)

METAR text: VOTV 192030Z 15004KT 4000 HZ FEW015 29/24 Q1009 NOSIG
Conditions at: VOTV (THIRUVANANTHAPUR, IN) observed 2030 UTC 19 March 2019
Temperature: 29.0°C (84°F)
Dewpoint: 24.0°C (75°F) [RH = 74%]
Pressure (altimeter): 29.79 inches Hg (1009.0 mb)
Winds: from the SSE (150 degrees) at 5 MPH (4 knots; 2.1 m/s)
Visibility: 2.49 miles (4.01 km)
Ceiling: at least 12,000 feet AGL
Clouds: few clouds at 1500 feet AGL
Weather: HZ  (haze)

METAR text: VOTV 192000Z 00000KT 4000 HZ FEW015 30/24 Q1009 NOSIG
Conditions at: VOTV (THIRUVANANTHAPUR, IN) observed 2000 UTC 19 March 2019
Temperature: 30.0°C (86°F)
Dewpoint: 24.0°C (75°F) [RH = 70%]
Pressure (altimeter): 29.79 inches Hg (1009.0 mb)
Winds: calm
Visibility: 2.49 miles (4.01 km)
Ceiling: at least 12,000 feet AGL
Clouds: few clouds at 1500 feet AGL
Weather: HZ  (haze)

METAR text: VOTV 191930Z 35003KT 4000 HZ FEW015 30/24 Q1009 NOSIG
Conditions at: VOTV (THIRUVANANTHAPUR, IN) observed 1930 UTC 19 March 2019
Temperature: 30.0°C (86°F)
Dewpoint: 24.0°C (75°F) [RH = 70%]
Pressure (altimeter): 29.79 inches Hg (1009.0 mb)
Winds: from the N (350 degrees) at 3 MPH (3 knots; 1.5 m/s)
Visibility: 2.49 miles (4.01 km)
Ceiling: at least 12,000 feet AGL
Clouds: few clouds at 1500 feet AGL
Weather: HZ  (haze)

METAR text: VOTV 191900Z 35003KT 4000 HZ FEW015 30/24 Q1010 NOSIG
Conditions at: VOTV (THIRUVANANTHAPUR, IN) observed 1900 UTC 19 March 2019
Temperature: 30.0°C (86°F)
Dewpoint: 24.0°C (75°F) [RH = 70%]
Pressure (altimeter): 29.82 inches Hg (1010.0 mb)
Winds: from the N (350 degrees) at 3 MPH (3 knots; 1.5 m/s)
Visibility: 2.49 miles (4.01 km)
Ceiling: at least 12,000 feet AGL
Clouds: few clouds at 1500 feet AGL
Weather: HZ  (haze)

METAR text: VOTV 191830Z 35003KT 4000 HZ SCT015 30/24 Q1010 NOSIG
Conditions at: VOTV (THIRUVANANTHAPUR, IN) observed 1830 UTC 19 March 2019
Temperature: 30.0°C (86°F)
Dewpoint: 24.0°C (75°F) [RH = 70%]
Pressure (altimeter): 29.82 inches Hg (1010.0 mb)
Winds: from the N (350 degrees) at 3 MPH (3 knots; 1.5 m/s)
Visibility: 2.49 miles (4.01 km)
Ceiling: at least 12,000 feet AGL
Clouds: scattered clouds at 1500 feet AGL
Weather: HZ  (haze)

METAR text: VOTV 191800Z 35003KT 4000 HZ SCT015 30/24 Q1010 NOSIG
Conditions at: VOTV (THIRUVANANTHAPUR, IN) observed 1800 UTC 19 March 2019
Temperature: 30.0°C (86°F)
Dewpoint: 24.0°C (75°F) [RH = 70%]
Pressure (altimeter): 29.82 inches Hg (1010.0 mb)
Winds: from the N (350 degrees) at 3 MPH (3 knots; 1.5 m/s)
Visibility: 2.49 miles (4.01 km)
Ceiling: at least 12,000 feet AGL
Clouds: scattered clouds at 1500 feet AGL
Weather: HZ  (haze)

METAR text: VOTV 191730Z 33003KT 4000 HZ SCT015 30/24 Q1011 NOSIG
Conditions at: VOTV (THIRUVANANTHAPUR, IN) observed 1730 UTC 19 March 2019
Temperature: 30.0°C (86°F)
Dewpoint: 24.0°C (75°F) [RH = 70%]
Pressure (altimeter): 29.85 inches Hg (1011.0 mb)
Winds: from the NNW (330 degrees) at 3 MPH (3 knots; 1.5 m/s)
Visibility: 2.49 miles (4.01 km)
Ceiling: at least 12,000 feet AGL
Clouds: scattered clouds at 1500 feet AGL
Weather: HZ  (haze)

METAR text: VOTV 191700Z 31003KT 4000 HZ SCT015 30/24 Q1010 NOSIG
Conditions at: VOTV (THIRUVANANTHAPUR, IN) observed 1700 UTC 19 March 2019
Temperature: 30.0°C (86°F)
Dewpoint: 24.0°C (75°F) [RH = 70%]
Pressure (altimeter): 29.82 inches Hg (1010.0 mb)
Winds: from the NW (310 degrees) at 3 MPH (3 knots; 1.5 m/s)
Visibility: 2.49 miles (4.01 km)
Ceiling: at least 12,000 feet AGL
Clouds: scattered clouds at 1500 feet AGL
Weather: HZ  (haze)

METAR text: VOTV 191630Z 00000KT 4000 HZ SCT015 30/24 Q1010 NOSIG
Conditions at: VOTV (THIRUVANANTHAPUR, IN) observed 1630 UTC 19 March 2019
Temperature: 30.0°C (86°F)
Dewpoint: 24.0°C (75°F) [RH = 70%]
Pressure (altimeter): 29.82 inches Hg (1010.0 mb)
Winds: calm
Visibility: 2.49 miles (4.01 km)
Ceiling: at least 12,000 feet AGL
Clouds: scattered clouds at 1500 feet AGL
Weather: HZ  (haze)

METAR text: VOTV 191600Z 28002KT 4000 HZ SCT015 30/24 Q1010 NOSIG
Conditions at: VOTV (THIRUVANANTHAPUR, IN) observed 1600 UTC 19 March 2019
Temperature: 30.0°C (86°F)
Dewpoint: 24.0°C (75°F) [RH = 70%]
Pressure (altimeter): 29.82 inches Hg (1010.0 mb)
Winds: from the W (280 degrees) at 2 MPH (2 knots; 1.0 m/s)
Visibility: 2.49 miles (4.01 km)
Ceiling: at least 12,000 feet AGL
Clouds: scattered clouds at 1500 feet AGL
Weather: HZ  (haze)

METAR text: VOTV 191530Z 28002KT 4000 HZ SCT015 30/24 Q1010 NOSIG
Conditions at: VOTV (THIRUVANANTHAPUR, IN) observed 1530 UTC 19 March 2019
Temperature: 30.0°C (86°F)
Dewpoint: 24.0°C (75°F) [RH = 70%]
Pressure (altimeter): 29.82 inches Hg (1010.0 mb)
Winds: from the W (280 degrees) at 2 MPH (2 knots; 1.0 m/s)
Visibility: 2.49 miles (4.01 km)
Ceiling: at least 12,000 feet AGL
Clouds: scattered clouds at 1500 feet AGL
Weather: HZ  (haze)

METAR text: VOTV 191500Z VRB01KT 4000 HZ SCT015 31/24 Q1009 NOSIG
Conditions at: VOTV (THIRUVANANTHAPUR, IN) observed 1500 UTC 19 March 2019
Temperature: 31.0°C (88°F)
Dewpoint: 24.0°C (75°F) [RH = 66%]
Pressure (altimeter): 29.79 inches Hg (1009.0 mb)
Winds: variable direction winds at 1 MPH (1 knots; 0.5 m/s)
Visibility: 2.49 miles (4.01 km)
Ceiling: at least 12,000 feet AGL
Clouds: scattered clouds at 1500 feet AGL
Weather: HZ  (haze)

METAR text: VOTV 191430Z 35004KT 4000 HZ SCT012 31/24 Q1009 NOSIG
Conditions at: VOTV (THIRUVANANTHAPUR, IN) observed 1430 UTC 19 March 2019
Temperature: 31.0°C (88°F)
Dewpoint: 24.0°C (75°F) [RH = 66%]
Pressure (altimeter): 29.79 inches Hg (1009.0 mb)
Winds: from the N (350 degrees) at 5 MPH (4 knots; 2.1 m/s)
Visibility: 2.49 miles (4.01 km)
Ceiling: at least 12,000 feet AGL
Clouds: scattered clouds at 1200 feet AGL
Weather: HZ  (haze)

METAR text: VOTV 191400Z 32005KT 4000 HZ FEW015 31/25 Q1008 NOSIG
Conditions at: VOTV (THIRUVANANTHAPUR, IN) observed 1400 UTC 19 March 2019
Temperature: 31.0°C (88°F)
Dewpoint: 25.0°C (77°F) [RH = 71%]
Pressure (altimeter): 29.76 inches Hg (1008.0 mb)
Winds: from the NW (320 degrees) at 6 MPH (5 knots; 2.6 m/s)
Visibility: 2.49 miles (4.01 km)
Ceiling: at least 12,000 feet AGL
Clouds: few clouds at 1500 feet AGL
Weather: HZ  (haze)

METAR text: VOTV 191330Z 24004KT 4000 HZ FEW015 32/24 Q1008 NOSIG
Conditions at: VOTV (THIRUVANANTHAPUR, IN) observed 1330 UTC 19 March 2019
Temperature: 32.0°C (90°F)
Dewpoint: 24.0°C (75°F) [RH = 63%]
Pressure (altimeter): 29.76 inches Hg (1008.0 mb)
Winds: from the WSW (240 degrees) at 5 MPH (4 knots; 2.1 m/s)
Visibility: 2.49 miles (4.01 km)
Ceiling: at least 12,000 feet AGL
Clouds: few clouds at 1500 feet AGL
Weather: HZ  (haze)

METAR text: VOTV 191300Z 24004KT 5000 HZ FEW015 32/24 Q1008 NOSIG
Conditions at: VOTV (THIRUVANANTHAPUR, IN) observed 1300 UTC 19 March 2019
Temperature: 32.0°C (90°F)
Dewpoint: 24.0°C (75°F) [RH = 63%]
Pressure (altimeter): 29.76 inches Hg (1008.0 mb)
Winds: from the WSW (240 degrees) at 5 MPH (4 knots; 2.1 m/s)
Visibility: 3 miles ( 5 km)
Ceiling: at least 12,000 feet AGL
Clouds: few clouds at 1500 feet AGL
Weather: HZ  (haze)

METAR text: VOTV 191230Z 27005KT 5000 HZ FEW015 31/25 Q1007 NOSIG
Conditions at: VOTV (THIRUVANANTHAPUR, IN) observed 1230 UTC 19 March 2019
Temperature: 31.0°C (88°F)
Dewpoint: 25.0°C (77°F) [RH = 71%]
Pressure (altimeter): 29.73 inches Hg (1007.0 mb)
Winds: from the W (270 degrees) at 6 MPH (5 knots; 2.6 m/s)
Visibility: 3 miles ( 5 km)
Ceiling: at least 12,000 feet AGL
Clouds: few clouds at 1500 feet AGL
Weather: HZ  (haze)

METAR text: VOTV 191200Z 27005KT 6000 FEW015 31/25 Q1007 TEMPO 5000 HZ
Conditions at: VOTV (THIRUVANANTHAPUR, IN) observed 1200 UTC 19 March 2019
Temperature: 31.0°C (88°F)
Dewpoint: 25.0°C (77°F) [RH = 71%]
Pressure (altimeter): 29.73 inches Hg (1007.0 mb)
Winds: from the W (270 degrees) at 6 MPH (5 knots; 2.6 m/s)
Visibility: 4 miles ( 6 km)
Ceiling: at least 12,000 feet AGL
Clouds: few clouds at 1500 feet AGL
Weather: no significant weather observed at this time

METAR text: VOTV 191130Z 28006KT 6000 FEW015 FEW025TCU 32/24 Q1007 NOSIG
Conditions at: VOTV (THIRUVANANTHAPUR, IN) observed 1130 UTC 19 March 2019
Temperature: 32.0°C (90°F)
Dewpoint: 24.0°C (75°F) [RH = 63%]
Pressure (altimeter): 29.73 inches Hg (1007.0 mb)
Winds: from the W (280 degrees) at 7 MPH (6 knots; 3.1 m/s)
Visibility: 4 miles ( 6 km)
Ceiling: at least 12,000 feet AGL
Clouds: few clouds at 1500 feet AGL
few clouds at 2500 feet AGL
Weather: no significant weather observed at this time

METAR text: VOTV 191100Z 28006KT 6000 FEW015 FEW025TCU 32/24 Q1006 NOSIG
Conditions at: VOTV (THIRUVANANTHAPUR, IN) observed 1100 UTC 19 March 2019
Temperature: 32.0°C (90°F)
Dewpoint: 24.0°C (75°F) [RH = 63%]
Pressure (altimeter): 29.70 inches Hg (1006.0 mb)
Winds: from the W (280 degrees) at 7 MPH (6 knots; 3.1 m/s)
Visibility: 4 miles ( 6 km)
Ceiling: at least 12,000 feet AGL
Clouds: few clouds at 1500 feet AGL
few clouds at 2500 feet AGL
Weather: no significant weather observed at this time

METAR text: VOTV 191030Z 27006KT 6000 FEW015 FEW025TCU 33/25 Q1006 NOSIG
Conditions at: VOTV (THIRUVANANTHAPUR, IN) observed 1030 UTC 19 March 2019
Temperature: 33.0°C (91°F)
Dewpoint: 25.0°C (77°F) [RH = 63%]
Pressure (altimeter): 29.70 inches Hg (1006.0 mb)
Winds: from the W (270 degrees) at 7 MPH (6 knots; 3.1 m/s)
Visibility: 4 miles ( 6 km)
Ceiling: at least 12,000 feet AGL
Clouds: few clouds at 1500 feet AGL
few clouds at 2500 feet AGL
Weather: no significant weather observed at this time

METAR text: VOTV 191000Z 26006KT 6000 FEW015 FEW025TCU 33/25 Q1006 NOSIG
Conditions at: VOTV (THIRUVANANTHAPUR, IN) observed 1000 UTC 19 March 2019
Temperature: 33.0°C (91°F)
Dewpoint: 25.0°C (77°F) [RH = 63%]
Pressure (altimeter): 29.70 inches Hg (1006.0 mb)
Winds: from the W (260 degrees) at 7 MPH (6 knots; 3.1 m/s)
Visibility: 4 miles ( 6 km)
Ceiling: at least 12,000 feet AGL
Clouds: few clouds at 1500 feet AGL
few clouds at 2500 feet AGL
Weather: no significant weather observed at this time

METAR text: VOTV 190930Z 30007KT 6000 FEW015 FEW025TCU 33/25 Q1007 NOSIG
Conditions at: VOTV (THIRUVANANTHAPUR, IN) observed 0930 UTC 19 March 2019
Temperature: 33.0°C (91°F)
Dewpoint: 25.0°C (77°F) [RH = 63%]
Pressure (altimeter): 29.73 inches Hg (1007.0 mb)
Winds: from the WNW (300 degrees) at 8 MPH (7 knots; 3.6 m/s)
Visibility: 4 miles ( 6 km)
Ceiling: at least 12,000 feet AGL
Clouds: few clouds at 1500 feet AGL
few clouds at 2500 feet AGL
Weather: no significant weather observed at this time

METAR text: VOTV 190900Z 29007KT 6000 FEW015 FEW025TCU 33/25 Q1007 NOSIG
Conditions at: VOTV (THIRUVANANTHAPUR, IN) observed 0900 UTC 19 March 2019
Temperature: 33.0°C (91°F)
Dewpoint: 25.0°C (77°F) [RH = 63%]
Pressure (altimeter): 29.73 inches Hg (1007.0 mb)
Winds: from the WNW (290 degrees) at 8 MPH (7 knots; 3.6 m/s)
Visibility: 4 miles ( 6 km)
Ceiling: at least 12,000 feet AGL
Clouds: few clouds at 1500 feet AGL
few clouds at 2500 feet AGL
Weather: no significant weather observed at this time

METAR text: VOTV 190830Z 30007KT 6000 FEW015 FEW025TCU 33/25 Q1007 NOSIG
Conditions at: VOTV (THIRUVANANTHAPUR, IN) observed 0830 UTC 19 March 2019
Temperature: 33.0°C (91°F)
Dewpoint: 25.0°C (77°F) [RH = 63%]
Pressure (altimeter): 29.73 inches Hg (1007.0 mb)
Winds: from the WNW (300 degrees) at 8 MPH (7 knots; 3.6 m/s)
Visibility: 4 miles ( 6 km)
Ceiling: at least 12,000 feet AGL
Clouds: few clouds at 1500 feet AGL
few clouds at 2500 feet AGL
Weather: no significant weather observed at this time

METAR text: VOTV 190800Z 32008KT 6000 FEW015 FEW025TCU 33/25 Q1008 NOSIG
Conditions at: VOTV (THIRUVANANTHAPUR, IN) observed 0800 UTC 19 March 2019
Temperature: 33.0°C (91°F)
Dewpoint: 25.0°C (77°F) [RH = 63%]
Pressure (altimeter): 29.76 inches Hg (1008.0 mb)
Winds: from the NW (320 degrees) at 9 MPH (8 knots; 4.1 m/s)
Visibility: 4 miles ( 6 km)
Ceiling: at least 12,000 feet AGL
Clouds: few clouds at 1500 feet AGL
few clouds at 2500 feet AGL
Weather: no significant weather observed at this time

METAR text: VOTV 190730Z 33009KT 6000 FEW015 FEW025TCU 32/26 Q1008 NOSIG
Conditions at: VOTV (THIRUVANANTHAPUR, IN) observed 0730 UTC 19 March 2019
Temperature: 32.0°C (90°F)
Dewpoint: 26.0°C (79°F) [RH = 71%]
Pressure (altimeter): 29.76 inches Hg (1008.0 mb)
Winds: from the NNW (330 degrees) at 10 MPH (9 knots; 4.6 m/s)
Visibility: 4 miles ( 6 km)
Ceiling: at least 12,000 feet AGL
Clouds: few clouds at 1500 feet AGL
few clouds at 2500 feet AGL
Weather: no significant weather observed at this time

METAR text: VOTV 190700Z 32008KT 6000 FEW015 FEW025TCU 32/25 Q1009 NOSIG
Conditions at: VOTV (THIRUVANANTHAPUR, IN) observed 0700 UTC 19 March 2019
Temperature: 32.0°C (90°F)
Dewpoint: 25.0°C (77°F) [RH = 67%]
Pressure (altimeter): 29.79 inches Hg (1009.0 mb)
Winds: from the NW (320 degrees) at 9 MPH (8 knots; 4.1 m/s)
Visibility: 4 miles ( 6 km)
Ceiling: at least 12,000 feet AGL
Clouds: few clouds at 1500 feet AGL
few clouds at 2500 feet AGL
Weather: no significant weather observed at this time

METAR text: VOTV 190630Z 32007KT 6000 FEW015 32/25 Q1010 NOSIG
Conditions at: VOTV (THIRUVANANTHAPUR, IN) observed 0630 UTC 19 March 2019
Temperature: 32.0°C (90°F)
Dewpoint: 25.0°C (77°F) [RH = 67%]
Pressure (altimeter): 29.82 inches Hg (1010.0 mb)
Winds: from the NW (320 degrees) at 8 MPH (7 knots; 3.6 m/s)
Visibility: 4 miles ( 6 km)
Ceiling: at least 12,000 feet AGL
Clouds: few clouds at 1500 feet AGL
Weather: no significant weather observed at this time

METAR text: VOTV 190600Z 33007KT 6000 FEW015 32/25 Q1010 NOSIG
Conditions at: VOTV (THIRUVANANTHAPUR, IN) observed 0600 UTC 19 March 2019
Temperature: 32.0°C (90°F)
Dewpoint: 25.0°C (77°F) [RH = 67%]
Pressure (altimeter): 29.82 inches Hg (1010.0 mb)
Winds: from the NNW (330 degrees) at 8 MPH (7 knots; 3.6 m/s)
Visibility: 4 miles ( 6 km)
Ceiling: at least 12,000 feet AGL
Clouds: few clouds at 1500 feet AGL
Weather: no significant weather observed at this time

METAR text: VOTV 190530Z 34007KT 6000 FEW015 31/25 Q1011 NOSIG
Conditions at: VOTV (THIRUVANANTHAPUR, IN) observed 0530 UTC 19 March 2019
Temperature: 31.0°C (88°F)
Dewpoint: 25.0°C (77°F) [RH = 71%]
Pressure (altimeter): 29.85 inches Hg (1011.0 mb)
Winds: from the NNW (340 degrees) at 8 MPH (7 knots; 3.6 m/s)
Visibility: 4 miles ( 6 km)
Ceiling: at least 12,000 feet AGL
Clouds: few clouds at 1500 feet AGL
Weather: no significant weather observed at this time

METAR text: VOTV 190500Z 34006KT 6000 FEW015 31/25 Q1012 NOSIG
Conditions at: VOTV (THIRUVANANTHAPUR, IN) observed 0500 UTC 19 March 2019
Temperature: 31.0°C (88°F)
Dewpoint: 25.0°C (77°F) [RH = 71%]
Pressure (altimeter): 29.88 inches Hg (1012.0 mb)
Winds: from the NNW (340 degrees) at 7 MPH (6 knots; 3.1 m/s)
Visibility: 4 miles ( 6 km)
Ceiling: at least 12,000 feet AGL
Clouds: few clouds at 1500 feet AGL
Weather: no significant weather observed at this time

METAR text: VOTV 190430Z 34005KT 6000 FEW015 31/25 Q1012 NOSIG
Conditions at: VOTV (THIRUVANANTHAPUR, IN) observed 0430 UTC 19 March 2019
Temperature: 31.0°C (88°F)
Dewpoint: 25.0°C (77°F) [RH = 71%]
Pressure (altimeter): 29.88 inches Hg (1012.0 mb)
Winds: from the NNW (340 degrees) at 6 MPH (5 knots; 2.6 m/s)
Visibility: 4 miles ( 6 km)
Ceiling: at least 12,000 feet AGL
Clouds: few clouds at 1500 feet AGL
Weather: no significant weather observed at this time

METAR text: VOTV 190400Z 36005KT 5000 HZ FEW015 31/24 Q1012 NOSIG
Conditions at: VOTV (THIRUVANANTHAPUR, IN) observed 0400 UTC 19 March 2019
Temperature: 31.0°C (88°F)
Dewpoint: 24.0°C (75°F) [RH = 66%]
Pressure (altimeter): 29.88 inches Hg (1012.0 mb)
Winds: from the N (360 degrees) at 6 MPH (5 knots; 2.6 m/s)
Visibility: 3 miles ( 5 km)
Ceiling: at least 12,000 feet AGL
Clouds: few clouds at 1500 feet AGL
Weather: HZ  (haze)

METAR text: VOTV 190330Z 34004KT 5000 HZ FEW015 31/25 Q1012 NOSIG
Conditions at: VOTV (THIRUVANANTHAPUR, IN) observed 0330 UTC 19 March 2019
Temperature: 31.0°C (88°F)
Dewpoint: 25.0°C (77°F) [RH = 71%]
Pressure (altimeter): 29.88 inches Hg (1012.0 mb)
Winds: from the NNW (340 degrees) at 5 MPH (4 knots; 2.1 m/s)
Visibility: 3 miles ( 5 km)
Ceiling: at least 12,000 feet AGL
Clouds: few clouds at 1500 feet AGL
Weather: HZ  (haze)

Forecast for: VOTV (THIRUVANANTHAPUR, IN)
Text: TAF VOTV 201400Z 2015/2024 28005KT 4000 HZ FEW015 FEW025CB
Forecast period: 1500 to 1700 UTC 20 March 2019
Forecast type: FROM: standard forecast or significant change
Winds: from the W (280 degrees) at 6 MPH (5 knots; 2.6 m/s)
Visibility: 2.49 miles (4.01 km)
Ceiling: at least 12,000 feet AGL
Clouds: few clouds at 1500 feet AGL
few clouds at 2500 feet AGL
Weather: HZ  (haze)
Text: BECMG 2017/2018 VRB05KT 3000 BR FEW015 SCT080
Forecast period: 1700 UTC 20 March 2019 to 0000 UTC 21 March 2019
Forecast type: BECOMING: Conditions expected to become as follows by 1800 UTC 20 March 2019
Winds: variable direction winds at 6 MPH (5 knots; 2.6 m/s)
Visibility: 1.86 miles (2.99 km)
Ceiling: at least 12,000 feet AGL
Clouds: few clouds at 1500 feet AGL
scattered clouds at 8000 feet AGL
Weather: BR  (mist)